Time;durP1;ratioP1;P1;durP2;ratioP2;P2;SDS_P1;SDS_P2;PMS_P1;PMS_P2;Temp;Humidity;BMP_temperature;BMP_pressure;BME280_temperature;BME280_humidity;BME280_pressure;Samples;Min_cycle;Max_cycle;Signal;HPM_P1;HPM_P2
2021/12/25 00:02:01;;;;;;;29.10;22.98;;;7.90;99.90;;;8.17;98.32;100412.16;5128674;28;20104;-66
2021/12/25 00:04:29;;;;;;;28.52;22.73;;;8.00;99.90;;;8.05;97.09;100386.72;5103694;28;20051;-66
2021/12/25 00:06:58;;;;;;;26.40;21.30;;;8.10;99.90;;;8.27;96.94;100418.31;5096309;28;20063;-68
2021/12/25 00:09:26;;;;;;;25.48;19.92;;;8.10;99.90;;;8.16;96.22;100395.50;5096236;28;20043;-67
2021/12/25 00:11:55;;;;;;;27.02;20.83;;;8.10;99.90;;;8.22;95.77;100418.31;5114859;28;20134;-68
2021/12/25 00:14:23;;;;;;;24.90;18.77;;;8.10;99.90;;;8.30;95.66;100416.59;5114441;28;20124;-68
2021/12/25 00:16:58;;;;;;;26.88;19.98;;;8.20;99.90;;;8.05;94.82;100399.91;5114301;28;20123;-69
2021/12/25 00:19:26;;;;;;;25.30;18.55;;;8.10;99.90;;;8.13;94.90;100413.94;5114609;28;20338;-68
2021/12/25 00:21:55;;;;;;;24.90;19.35;;;8.10;99.90;;;7.98;94.57;100413.97;5114535;28;20051;-68
2021/12/25 00:24:23;;;;;;;21.13;17.67;;;8.10;99.90;;;7.95;94.97;100403.47;5114113;28;20055;-67
2021/12/25 00:26:57;;;;;;;26.90;18.10;;;7.90;99.90;;;7.94;94.83;100419.22;5114104;28;20118;-68
2021/12/25 00:29:52;;;;;;;23.85;18.30;;;7.90;99.90;;;7.94;94.79;100411.31;5114540;28;20051;-72
2021/12/25 00:32:47;;;;;;;25.45;18.90;;;7.80;99.90;;;7.88;93.85;100414.84;5095738;28;20094;-70
2021/12/25 00:35:16;;;;;;;24.98;19.58;;;7.90;99.90;;;7.88;93.67;100420.13;5114230;28;20192;-69
2021/12/25 00:37:45;;;;;;;28.10;21.10;;;7.80;99.90;;;7.43;93.87;100385.06;5113883;28;20122;-70
2021/12/25 00:40:14;;;;;;;31.85;20.88;;;7.70;99.90;;;7.66;93.97;100410.50;5114066;28;20108;-69
2021/12/25 00:42:42;;;;;;;30.30;22.17;;;7.60;99.90;;;7.62;93.51;100400.84;5095718;28;20142;-69
2021/12/25 00:45:11;;;;;;;32.63;23.92;;;7.60;99.90;;;7.62;93.16;100410.50;5095577;28;20392;-69
2021/12/25 00:47:41;;;;;;;31.33;22.55;;;7.60;99.90;;;7.20;93.07;100420.09;5095483;28;20425;-69
2021/12/25 00:50:11;;;;;;;36.80;24.20;;;7.40;99.90;;;7.16;93.72;100418.31;5113716;28;20101;-68
2021/12/25 00:52:39;;;;;;;40.47;25.00;;;7.30;99.90;;;7.29;93.96;100421.88;5113533;28;20122;-67
2021/12/25 00:55:10;;;;;;;45.15;26.48;;;7.30;99.90;;;7.07;93.67;100420.94;5095388;28;20138;-69
2021/12/25 00:57:40;;;;;;;42.15;26.27;;;7.20;99.90;;;7.10;94.17;100428.81;5113584;28;20039;-69
2021/12/25 01:00:13;;;;;;;40.75;26.23;;;7.10;99.90;;;7.11;94.05;100433.22;5095230;28;20386;-69
2021/12/25 01:02:46;;;;;;;47.30;27.88;;;7.10;99.90;;;6.79;94.17;100444.50;5114072;28;20048;-69
2021/12/25 01:05:18;;;;;;;52.85;30.40;;;6.90;99.90;;;6.97;94.62;100437.56;5095173;28;20047;-69
2021/12/25 01:07:48;;;;;;;49.65;30.35;;;7.00;99.90;;;6.89;94.98;100422.66;5095201;28;20188;-68
2021/12/25 01:10:22;;;;;;;47.88;30.77;;;6.90;99.90;;;6.81;95.04;100453.28;5094647;28;20465;-69
2021/12/25 01:13:07;;;;;;;52.17;31.27;;;6.80;99.90;;;6.84;96.10;100448.03;5094629;28;20492;-69
2021/12/25 01:15:45;;;;;;;53.13;31.17;;;6.80;99.90;;;6.95;95.72;100444.56;5094340;28;20044;-69
2021/12/25 01:21:35;;;;;;;56.92;33.70;;;6.80;99.90;;;6.85;96.03;100427.00;5093537;28;20047;-69
2021/12/25 01:24:35;;;;;;;51.75;31.73;;;6.90;99.90;;;7.10;95.61;100428.81;5094701;28;20054;-69
2021/12/25 01:30:04;;;;;;;50.38;32.00;;;7.00;99.90;;;7.18;95.53;100421.84;5094261;28;20047;-66
2021/12/25 01:33:07;;;;;;;57.83;32.80;;;7.10;99.90;;;7.09;94.66;100408.69;5094506;28;20047;-66
2021/12/25 01:39:16;;;;;;;52.45;31.90;;;7.00;99.90;;;7.06;95.16;100423.56;5109838;28;20074;-66
2021/12/25 01:48:19;;;;;;;49.47;29.90;;;6.90;99.90;;;6.84;94.72;100403.34;5094160;28;20040;-67
2021/12/25 01:50:48;;;;;;;46.55;31.67;;;6.90;99.90;;;6.78;94.91;100409.47;5112507;28;20116;-67
2021/12/25 01:53:18;;;;;;;53.67;31.48;;;6.80;99.90;;;6.80;95.40;100417.34;5093940;28;20458;-66
2021/12/25 01:55:46;;;;;;;50.33;31.83;;;6.80;99.90;;;6.75;95.38;100398.97;5112381;28;20040;-66
2021/12/25 01:58:15;;;;;;;55.30;32.65;;;6.90;99.90;;;6.57;94.90;100419.91;5094002;28;20037;-66
2021/12/25 02:00:49;;;;;;;48.13;30.77;;;6.70;99.90;;;6.81;95.64;100416.50;5112525;28;20043;-66
2021/12/25 02:03:22;;;;;;;45.67;30.50;;;6.70;99.90;;;6.84;95.61;100422.63;5112595;28;20116;-66
2021/12/25 02:05:51;;;;;;;45.67;29.52;;;6.80;99.90;;;6.70;95.36;100412.94;5112055;28;20457;-67
2021/12/25 02:08:29;;;;;;;46.95;30.30;;;6.70;99.90;;;6.63;95.41;100424.28;5093746;28;20050;-67
2021/12/25 02:10:57;;;;;;;45.10;29.35;;;6.60;99.90;;;6.37;96.46;100421.53;5093868;28;20119;-66
2021/12/25 02:13:26;;;;;;;45.20;30.02;;;6.40;99.90;;;6.48;95.90;100417.25;5093773;28;20089;-66
2021/12/25 02:15:57;;;;;;;39.80;28.73;;;6.50;99.90;;;6.23;96.08;100394.34;5093524;28;20043;-67
2021/12/25 02:18:33;;;;;;;36.78;26.95;;;6.40;99.90;;;6.44;95.81;100446.09;5094100;28;20168;-67
2021/12/25 02:21:18;;;;;;;34.83;26.05;;;6.40;99.90;;;6.53;95.64;100425.13;5094055;28;20361;-66
2021/12/25 02:23:48;;;;;;;34.00;24.48;;;6.50;99.90;;;6.57;94.92;100429.53;5094157;28;20139;-66
2021/12/25 02:26:18;;;;;;;34.25;23.90;;;6.50;99.90;;;6.46;94.48;100425.97;5094142;28;20134;-67
2021/12/25 02:28:47;;;;;;;33.65;25.60;;;6.50;99.90;;;6.20;94.48;100420.56;5093801;28;20051;-66
2021/12/25 02:31:18;;;;;;;30.88;23.83;;;6.30;99.90;;;6.28;94.70;100429.38;5093922;28;20127;-66
2021/12/25 02:33:46;;;;;;;32.65;22.40;;;6.30;99.90;;;6.11;94.75;100424.03;5094061;28;20466;-67
2021/12/25 02:36:17;;;;;;;27.92;22.73;;;6.20;99.90;;;5.94;95.54;100440.53;5093727;28;20481;-66
2021/12/25 02:38:48;;;;;;;33.38;23.45;;;6.00;99.90;;;6.18;95.98;100430.19;5093583;28;20473;-66
2021/12/25 02:41:20;;;;;;;31.88;24.58;;;6.10;99.90;;;6.24;95.22;100436.38;5093634;28;20051;-66
2021/12/25 02:43:49;;;;;;;30.92;23.90;;;6.20;99.90;;;6.25;95.06;100438.09;5093421;28;20093;-66
2021/12/25 02:46:29;;;;;;;30.77;24.20;;;6.30;99.90;;;6.41;94.90;100443.47;5093429;28;20519;-66
2021/12/25 02:48:59;;;;;;;33.03;25.70;;;6.30;99.90;;;6.32;94.30;100441.66;5093328;28;20485;-66
2021/12/25 02:51:28;;;;;;;31.08;24.52;;;6.30;99.90;;;6.42;93.99;100450.47;5111733;28;20341;-66
2021/12/25 02:53:57;;;;;;;32.75;26.25;;;6.40;99.90;;;6.26;93.70;100439.88;5092984;28;20074;-66
2021/12/25 02:56:27;;;;;;;33.10;24.83;;;6.30;99.90;;;6.10;93.35;100438.03;5093118;28;20035;-65
2021/12/25 02:58:55;;;;;;;31.63;25.02;;;6.20;99.90;;;6.19;93.58;100448.56;5093232;28;20055;-66
2021/12/25 03:01:24;;;;;;;30.40;25.08;;;6.20;99.90;;;6.24;93.35;100441.63;5093111;28;20497;-66
2021/12/25 03:03:54;;;;;;;32.22;25.67;;;6.20;99.90;;;6.02;93.04;100450.22;5093063;28;20065;-66
2021/12/25 03:06:23;;;;;;;30.50;25.23;;;6.10;99.90;;;6.06;92.87;100454.63;5093041;28;20067;-66
2021/12/25 03:08:53;;;;;;;30.50;24.33;;;6.00;99.90;;;6.08;92.79;100452.88;5111152;28;20047;-67
2021/12/25 03:11:23;;;;;;;30.27;24.77;;;6.10;99.90;;;6.10;92.62;100461.66;5093212;28;20055;-67
2021/12/25 03:14:10;;;;;;;31.45;23.52;;;6.00;99.90;;;6.05;92.91;100468.63;5093038;28;20071;-66
2021/12/25 03:16:39;;;;;;;33.83;25.63;;;6.00;99.90;;;6.17;92.63;100452.06;5092951;28;20111;-66
2021/12/25 03:19:17;;;;;;;29.37;24.67;;;6.20;99.90;;;6.22;92.02;100468.72;5093181;28;20342;-66
2021/12/25 03:21:45;;;;;;;28.30;23.93;;;6.20;99.90;;;6.27;91.51;100483.63;5111412;28;20043;-66
2021/12/25 03:24:15;;;;;;;26.93;23.17;;;6.20;99.90;;;6.07;91.92;100473.88;5111449;28;20411;-66
2021/12/25 03:26:46;;;;;;;25.20;21.63;;;6.00;99.90;;;5.87;91.93;100473.72;5111645;28;20489;-66
2021/12/25 03:29:14;;;;;;;23.03;19.47;;;5.90;99.90;;;5.41;91.85;100480.28;5111058;28;20044;-66
2021/12/25 03:31:42;;;;;;;25.20;20.93;;;5.60;99.90;;;5.28;92.87;100469.66;5092641;28;20143;-66
2021/12/25 03:34:11;;;;;;;24.30;19.83;;;5.40;99.90;;;5.59;93.40;100476.97;5111130;28;20403;-66
2021/12/25 03:36:40;;;;;;;26.30;20.90;;;5.60;99.90;;;5.58;93.00;100477.81;5111358;28;20036;-66
2021/12/25 03:39:08;;;;;;;26.93;20.83;;;5.60;99.90;;;5.55;92.81;100487.41;5093126;28;20044;-66
2021/12/25 03:41:38;;;;;;;24.93;20.43;;;5.50;99.90;;;5.69;92.74;100489.25;5096284;28;20439;-66
2021/12/25 03:44:07;;;;;;;24.45;20.88;;;5.60;99.90;;;5.70;92.17;100487.53;5115190;28;20047;-69
2021/12/25 03:46:38;;;;;;;23.33;19.23;;;5.70;99.90;;;5.74;92.09;100491.94;5115225;28;20101;-66
2021/12/25 03:49:14;;;;;;;24.70;20.03;;;5.70;99.90;;;5.47;92.56;100495.19;5115240;28;20039;-66
2021/12/25 04:00:05;;;;;;;26.13;21.30;;;4.50;99.90;;;4.76;95.85;100494.41;5096526;28;20055;-66
2021/12/25 04:02:52;;;;;;;27.83;20.90;;;4.70;99.90;;;5.06;95.43;100493.88;5114512;28;20050;-66
2021/12/25 04:05:34;;;;;;;;;;;5.00;99.90;;;5.19;94.64;100494.03;5096841;28;20412;-66
2021/12/25 04:08:07;;;;;;;28.70;21.60;;;5.20;99.90;;;4.76;94.46;100502.25;5114795;28;19938;-66
2021/12/25 04:10:40;;;;;;;30.37;22.27;;;5.00;99.90;;;5.07;94.79;100500.88;5096097;28;20044;-66
2021/12/25 04:13:13;;;;;;;30.87;23.77;;;5.10;99.90;;;5.11;93.91;100497.44;5096153;28;20067;-66
2021/12/25 04:15:42;;;;;;;31.67;25.20;;;5.10;99.90;;;5.24;93.24;100526.44;5114438;28;20069;-66
2021/12/25 04:18:11;;;;;;;32.03;24.57;;;5.20;99.90;;;5.33;93.12;100517.75;5114863;28;20046;-66
2021/12/25 04:20:41;;;;;;;32.90;23.87;;;5.30;99.90;;;5.01;92.57;100509.56;5114293;28;20043;-66
2021/12/25 04:23:15;;;;;;;33.55;24.40;;;5.20;99.90;;;5.09;92.66;100507.03;5114304;28;20435;-66
2021/12/25 04:25:43;;;;;;;36.33;25.10;;;5.10;99.90;;;5.05;92.68;100520.94;5114278;28;20043;-66
2021/12/25 04:28:18;;;;;;;32.53;24.10;;;5.10;99.90;;;4.95;92.75;100519.06;5095448;28;20043;-66
2021/12/25 04:31:06;;;;;;;37.00;26.10;;;5.00;99.90;;;4.86;93.10;100513.72;5095770;28;20561;-67
2021/12/25 05:04:25;;;;;;;37.80;26.90;;;4.80;99.90;;;4.82;93.14;100538.13;5113337;28;20062;-68
2021/12/25 05:07:06;;;;;;;38.23;27.27;;;4.90;99.90;;;4.93;92.84;100547.00;5113756;28;20136;-67
2021/12/25 05:09:35;;;;;;;39.15;27.70;;;5.00;99.90;;;4.94;92.66;100553.97;5095382;28;20059;-68
2021/12/25 05:12:04;;;;;;;36.93;27.50;;;5.00;99.90;;;4.84;92.04;100549.50;5095461;28;20370;-66
2021/12/25 05:14:33;;;;;;;39.03;27.50;;;4.90;99.90;;;4.71;91.83;100566.78;5095292;28;20050;-66
2021/12/25 05:17:05;;;;;;;38.73;27.20;;;4.80;99.90;;;4.80;92.75;100568.66;5095092;28;20044;-66
2021/12/25 05:19:34;;;;;;;39.87;28.17;;;4.80;99.90;;;4.78;92.30;100567.75;5094873;28;20349;-66
2021/12/25 05:22:03;;;;;;;36.93;26.47;;;4.80;99.90;;;4.72;92.47;100568.56;5094774;28;20142;-67
2021/12/25 05:24:31;;;;;;;39.53;27.30;;;4.80;99.90;;;4.75;92.21;100562.44;5094661;28;20065;-66
2021/12/25 05:27:00;;;;;;;36.40;26.67;;;4.80;99.90;;;4.80;92.16;100566.03;5112819;28;20097;-66
2021/12/25 05:29:33;;;;;;;39.20;28.27;;;4.80;99.90;;;4.88;92.11;100544.31;5094624;28;20063;-66
2021/12/25 05:32:05;;;;;;;36.60;27.00;;;5.00;99.90;;;4.89;91.99;100572.28;5094649;28;20090;-67
2021/12/25 05:35:11;;;;;;;43.57;29.87;;;4.90;99.90;;;4.95;92.12;100566.22;5029899;28;20050;-67
2021/12/25 05:37:59;;;;;;;44.97;30.40;;;5.00;99.90;;;5.02;91.23;100576.81;5029809;28;20045;-66
2021/12/25 05:40:46;;;;;;;42.67;29.27;;;5.00;99.90;;;5.12;91.05;100572.56;5077910;28;20176;-66
2021/12/25 05:43:16;;;;;;;41.70;29.87;;;5.10;99.90;;;5.02;90.09;100565.44;5094351;28;20047;-66
2021/12/25 05:45:45;;;;;;;45.63;30.92;;;5.10;99.90;;;5.05;90.09;100586.47;5111481;28;20150;-66
2021/12/25 05:48:24;;;;;;;49.07;30.77;;;5.10;99.90;;;5.11;90.24;100573.44;5094586;28;20618;-67
2021/12/25 05:51:08;;;;;;;43.33;29.23;;;5.10;99.90;;;4.89;89.26;100585.38;5094575;28;20051;-68
2021/12/25 05:53:53;;;;;;;39.60;28.00;;;5.00;99.90;;;4.95;89.49;100589.81;5093903;28;20056;-66
2021/12/25 05:57:04;;;;;;;42.97;29.83;;;5.00;99.90;;;4.72;89.04;100570.28;5111479;28;20047;-67
2021/12/25 05:59:44;;;;;;;44.67;28.30;;;4.80;99.90;;;4.53;90.08;100587.44;5094158;28;20051;-66
2021/12/25 06:02:36;;;;;;;44.63;29.03;;;4.60;99.90;;;4.50;89.72;100576.94;5103626;28;20513;-66
2021/12/25 06:05:09;;;;;;;46.57;28.07;;;4.60;99.90;;;4.73;89.85;100593.88;5094079;28;20067;-66
2021/12/25 06:07:38;;;;;;;43.97;27.47;;;4.70;99.90;;;4.54;89.80;100590.13;5093904;28;20050;-66
2021/12/25 06:10:10;;;;;;;43.77;28.80;;;4.70;99.90;;;4.43;89.49;100582.97;5093777;28;20188;-66
2021/12/25 06:12:40;;;;;;;45.67;28.40;;;4.60;99.90;;;4.12;89.92;100594.63;5093831;28;20043;-66
2021/12/25 06:15:12;;;;;;;45.55;29.33;;;4.30;99.90;;;4.36;90.93;100602.91;5093845;28;20145;-66
2021/12/25 06:17:56;;;;;;;44.43;28.97;;;4.40;99.90;;;4.35;90.56;100610.75;5093784;28;20047;-67
2021/12/25 06:20:34;;;;;;;43.43;27.73;;;4.30;99.90;;;4.26;90.18;100615.81;5093847;28;20040;-66
2021/12/25 06:23:30;;;;;;;43.23;28.63;;;4.30;99.90;;;4.42;90.56;100609.97;5093941;28;20112;-66
2021/12/25 06:26:17;;;;;;;45.60;28.63;;;4.40;99.90;;;4.36;90.58;100622.97;5093822;28;20097;-66
2021/12/25 06:28:54;;;;;;;46.10;29.00;;;4.40;99.90;;;4.27;90.03;100580.94;5112503;28;20044;-66
2021/12/25 06:31:43;;;;;;;44.93;26.93;;;4.50;99.90;;;4.16;89.61;100613.91;5110975;28;20055;-66
2021/12/25 06:34:30;;;;;;;38.97;25.13;;;4.30;99.90;;;4.40;89.61;100628.28;5111908;28;20503;-66
2021/12/25 06:37:35;;;;;;;38.73;23.83;;;4.40;99.90;;;4.50;89.24;100622.34;5048674;28;20065;-66
2021/12/25 06:40:18;;;;;;;37.27;23.90;;;4.50;99.90;;;4.37;88.96;100628.25;5105304;28;20055;-67
2021/12/25 06:42:48;;;;;;;37.47;24.40;;;4.40;99.90;;;3.97;89.02;100641.47;5093742;28;20120;-66
2021/12/25 06:45:17;;;;;;;36.57;24.57;;;4.20;99.90;;;4.07;90.21;100630.31;5112030;28;20378;-67
2021/12/25 06:47:46;;;;;;;35.97;23.23;;;4.10;99.90;;;4.17;89.90;100627.03;5093847;28;20517;-67
2021/12/25 06:50:35;;;;;;;33.93;23.93;;;4.20;99.90;;;4.18;89.66;100631.38;5111979;28;20376;-66
2021/12/25 06:53:31;;;;;;;34.80;23.23;;;4.20;99.90;;;3.92;89.62;100632.69;5107695;28;20048;-67
2021/12/25 06:56:12;;;;;;;37.97;21.87;;;4.00;99.90;;;3.93;89.66;100626.56;5111454;28;20488;-67
2021/12/25 06:58:52;;;;;;;29.27;20.73;;;4.00;99.90;;;4.06;89.22;100633.81;5093333;28;20105;-66
2021/12/25 07:01:21;;;;;;;30.30;20.37;;;4.10;99.90;;;4.04;88.72;100630.28;5093090;28;20350;-66
2021/12/25 07:03:50;;;;;;;27.23;19.07;;;4.10;99.90;;;3.98;88.86;100643.25;5093077;28;20458;-66
2021/12/25 07:06:50;;;;;;;;;;;4.00;99.90;;;3.95;88.52;100642.31;5044559;28;20055;-66
2021/12/25 07:09:39;;;;;;;26.30;16.93;;;4.00;99.90;;;4.02;87.95;100639.84;5111572;28;19930;-67
2021/12/25 07:12:43;;;;;;;21.13;15.17;;;4.00;99.90;;;3.92;86.77;100653.59;5076733;28;20481;-66
2021/12/25 07:15:28;;;;;;;21.03;16.00;;;4.00;99.90;;;3.89;86.41;100645.69;5095399;28;20089;-67
2021/12/25 07:18:09;;;;;;;25.57;16.03;;;3.90;99.90;;;3.64;86.65;100648.69;5096902;28;20047;-66
2021/12/25 07:21:01;;;;;;;23.23;15.17;;;3.70;99.90;;;3.84;86.71;100660.41;5109187;28;20051;-66
2021/12/25 07:23:59;;;;;;;19.57;14.00;;;3.80;99.90;;;3.82;85.92;100656.91;5059369;28;20052;-67
2021/12/25 07:26:36;;;;;;;14.17;10.60;;;3.90;99.90;;;3.73;84.42;100666.28;5096926;28;20223;-67
2021/12/25 07:29:20;;;;;;;13.60;10.37;;;3.80;99.90;;;3.77;83.82;100653.31;5096924;28;20047;-66
2021/12/25 07:31:49;;;;;;;12.90;10.37;;;3.80;99.90;;;3.49;83.46;100648.38;5114970;28;20105;-66
2021/12/25 07:34:17;;;;;;;11.10;9.40;;;3.60;99.90;;;3.62;83.15;100650.38;5114879;28;20039;-66
2021/12/25 07:36:46;;;;;;;11.27;9.10;;;3.70;99.90;;;3.63;82.82;100665.25;5114874;28;20063;-71
2021/12/25 07:39:14;;;;;;;9.97;8.90;;;3.70;99.90;;;3.49;81.94;100656.22;5115140;28;20155;-71
2021/12/25 07:41:44;;;;;;;10.70;8.77;;;3.60;99.90;;;3.44;82.11;100669.22;5096448;28;20072;-71
2021/12/25 07:44:25;;;;;;;12.13;8.73;;;3.50;99.90;;;3.29;82.26;100678.47;5096714;28;20531;-71
2021/12/25 07:46:54;;;;;;;9.77;8.80;;;3.40;99.90;;;3.33;82.25;100668.09;5115117;28;20128;-71
2021/12/25 07:49:23;;;;;;;11.77;8.23;;;3.40;99.90;;;3.19;82.24;100679.13;5115099;28;20122;-71
2021/12/25 07:51:51;;;;;;;9.40;8.47;;;3.30;99.90;;;3.23;81.98;100692.25;5114706;28;20044;-71
2021/12/25 07:54:20;;;;;;;10.30;8.50;;;3.30;99.90;;;3.23;82.01;100692.25;5096377;28;20044;-70
2021/12/25 07:56:50;;;;;;;11.97;8.57;;;3.30;99.90;;;3.22;82.01;100703.56;5115167;28;20074;-71
2021/12/25 07:59:19;;;;;;;10.93;7.55;;;3.30;99.90;;;3.24;81.48;100708.81;5096590;28;20067;-70
2021/12/25 08:01:48;;;;;;;10.15;8.15;;;3.30;99.90;;;3.20;81.76;100707.88;5115350;28;20040;-70
2021/12/25 08:04:18;;;;;;;9.20;8.33;;;3.30;99.90;;;2.74;81.77;100719.00;5115366;28;20122;-71
2021/12/25 08:06:47;;;;;;;9.88;8.45;;;3.00;99.90;;;2.74;82.29;100710.28;5114813;28;20472;-70
2021/12/25 08:09:17;;;;;;;8.67;7.87;;;2.90;99.90;;;2.91;82.94;100705.44;5114570;28;20075;-71
2021/12/25 08:11:46;;;;;;;8.43;7.53;;;2.90;99.90;;;2.93;82.31;100711.59;5114410;28;20048;-70
2021/12/25 08:14:18;;;;;;;11.00;8.43;;;3.00;99.90;;;3.03;82.12;100722.31;5114230;28;20130;-70
2021/12/25 08:16:47;;;;;;;8.33;7.33;;;3.00;99.90;;;2.95;81.56;100722.97;5114481;28;20104;-67
2021/12/25 08:19:16;;;;;;;8.23;7.43;;;3.00;99.90;;;2.95;81.52;100709.91;5096055;28;20390;-66
2021/12/25 08:22:23;;;;;;;10.37;8.57;;;3.00;99.90;;;2.73;81.11;100725.06;5051178;28;20044;-68
2021/12/25 08:25:12;;;;;;;8.83;7.47;;;2.80;99.90;;;2.39;80.47;100734.63;5050795;28;20056;-69
2021/12/25 08:28:00;;;;;;;8.37;7.50;;;2.70;99.90;;;2.25;80.72;100713.38;5098993;28;20059;-68
2021/12/25 08:30:48;;;;;;;8.73;7.93;;;2.50;99.90;;;2.26;81.99;100738.66;5114284;28;20510;-65
2021/12/25 08:33:46;;;;;;;8.27;7.40;;;2.40;99.90;;;2.35;81.51;100728.44;5005963;28;20145;-67
2021/12/25 08:36:32;;;;;;;9.10;8.03;;;2.50;99.90;;;2.47;81.44;100736.59;5114034;28;20066;-66
2021/12/25 08:39:01;;;;;;;10.37;7.97;;;2.60;99.90;;;2.59;81.44;100749.94;5113584;28;20052;-67
2021/12/25 08:41:31;;;;;;;8.67;7.87;;;2.70;99.90;;;2.53;81.54;100749.81;5095612;28;20039;-71
2021/12/25 08:44:07;;;;;;;9.38;8.38;;;2.60;99.90;;;2.49;81.13;100741.84;5114091;28;20111;-70
2021/12/25 08:46:50;;;;;;;8.30;7.50;;;2.60;99.90;;;2.54;81.54;100746.31;5114037;28;20047;-69
2021/12/25 08:49:18;;;;;;;9.17;8.17;;;2.60;99.90;;;2.53;80.65;100743.69;5114109;28;20075;-66
2021/12/25 08:51:48;;;;;;;11.53;8.10;;;2.60;99.90;;;2.55;80.42;100760.28;5113453;28;20036;-69
2021/12/25 08:54:16;;;;;;;8.75;7.80;;;2.60;99.90;;;2.43;80.78;100739.97;5113361;28;20058;-68
2021/12/25 08:56:45;;;;;;;9.20;7.20;;;2.60;99.90;;;1.99;80.42;100669.22;5113481;28;20481;-69
2021/12/25 08:59:14;;;;;;;8.23;7.00;;;2.50;99.90;;;2.56;80.61;100760.31;5095258;28;20461;-70
2021/12/25 09:01:44;;;;;;;7.70;7.10;;;2.60;99.90;;;2.44;79.97;100762.59;5113787;28;20462;-69
2021/12/25 09:04:13;;;;;;;;;;;2.60;99.90;;;1.82;80.85;100760.88;5114026;28;20151;-70
2021/12/25 09:06:42;;;;;;;8.50;7.70;;;2.10;99.90;;;1.94;81.47;100756.84;5113315;28;20011;-70
2021/12/25 09:09:11;;;;;;;8.40;7.60;;;2.00;99.90;;;1.94;81.32;100762.94;5113413;28;20048;-69
2021/12/25 09:11:42;;;;;;;8.00;7.30;;;2.00;99.90;;;1.75;80.70;100760.66;5113317;28;20533;-65
2021/12/25 09:14:10;;;;;;;10.97;8.10;;;2.00;99.90;;;1.87;81.32;100762.72;5113136;28;20116;-66
2021/12/25 09:16:39;;;;;;;7.77;7.07;;;1.90;99.90;;;1.97;81.62;100768.25;5113087;28;20087;-65
2021/12/25 09:19:09;;;;;;;8.77;7.87;;;2.00;99.90;;;2.30;81.70;100761.38;5112869;28;20040;-66
2021/12/25 09:21:38;;;;;;;8.40;7.57;;;2.30;99.90;;;2.32;80.95;100754.44;5113570;28;20046;-67
2021/12/25 09:24:07;;;;;;;8.47;7.63;;;2.40;99.90;;;1.98;79.79;100743.94;5113279;28;20118;-66
2021/12/25 09:26:36;;;;;;;8.63;7.70;;;2.20;99.90;;;2.08;79.93;100764.22;5112988;28;20043;-67
2021/12/25 09:29:05;;;;;;;11.27;7.40;;;2.20;99.90;;;1.97;79.69;100760.44;5112774;28;20465;-68
2021/12/25 09:31:35;;;;;;;7.93;7.20;;;2.10;99.90;;;2.07;79.87;100767.66;5113049;28;20116;-68
2021/12/25 09:34:03;;;;;;;9.87;8.27;;;2.10;99.90;;;2.21;79.44;100771.53;5112923;28;20083;-65
2021/12/25 09:36:34;;;;;;;8.43;7.63;;;2.30;99.90;;;2.31;78.95;100773.56;5112648;28;20065;-66
2021/12/25 09:39:06;;;;;;;10.07;8.03;;;2.30;99.90;;;2.22;78.57;100780.25;5112275;28;20514;-71
2021/12/25 09:41:35;;;;;;;7.90;7.10;;;2.30;99.90;;;2.20;78.08;100775.00;5094783;28;20382;-68
2021/12/25 09:44:05;;;;;;;8.93;7.40;;;2.30;99.90;;;2.16;78.27;100762.72;5113020;28;20491;-75
2021/12/25 09:46:34;;;;;;;7.30;6.63;;;2.30;99.90;;;2.11;77.92;100779.09;5112626;28;20546;-73
2021/12/25 09:49:04;;;;;;;8.23;7.47;;;2.30;99.90;;;2.37;77.85;100796.31;5112877;28;20051;-72
2021/12/25 09:51:34;;;;;;;8.05;7.25;;;2.50;99.90;;;2.03;78.05;100804.06;5113268;28;20131;-73
2021/12/25 09:54:07;;;;;;;8.70;6.75;;;2.20;99.90;;;1.93;77.97;100779.44;5112831;28;20056;-68
2021/12/25 09:56:38;;;;;;;8.40;7.60;;;2.10;99.90;;;2.06;78.48;100818.06;5112615;28;20493;-68
2021/12/25 09:59:10;;;;;;;8.93;7.80;;;2.10;99.90;;;2.15;78.25;100823.53;5112871;28;20223;-69
2021/12/25 10:01:43;;;;;;;10.57;7.57;;;2.20;99.90;;;2.00;78.48;100817.88;5112333;28;20057;-69
2021/12/25 10:04:30;;;;;;;9.43;8.40;;;2.10;99.90;;;2.05;77.89;100820.63;5112217;28;20063;-68
2021/12/25 10:07:17;;;;;;;8.27;7.57;;;2.20;99.90;;;2.08;78.32;100816.38;5094046;28;20044;-68
2021/12/25 10:10:06;;;;;;;9.77;7.37;;;2.10;99.90;;;1.76;78.24;100825.88;5112535;28;20048;-71
2021/12/25 10:12:41;;;;;;;9.97;8.50;;;1.90;99.90;;;1.69;79.26;100804.78;5112417;28;20032;-71
2021/12/25 10:15:13;;;;;;;10.53;8.33;;;1.80;99.90;;;2.02;79.34;100810.09;5112059;28;20051;-69
2021/12/25 10:17:48;;;;;;;8.97;8.17;;;2.00;99.90;;;1.87;79.72;100809.66;5112643;28;20066;-72
2021/12/25 10:20:20;;;;;;;9.10;7.60;;;1.90;99.90;;;2.03;79.26;100807.56;5111816;28;20466;-72
2021/12/25 10:23:13;;;;;;;8.73;7.87;;;2.10;99.90;;;2.30;78.83;100803.13;5111849;28;20040;-73
2021/12/25 10:25:47;;;;;;;8.90;8.00;;;2.30;99.90;;;2.39;78.39;100803.34;5111775;28;20066;-72
2021/12/25 10:28:20;;;;;;;9.03;8.23;;;2.50;99.90;;;2.90;78.10;100798.59;5111899;28;20455;-72
2021/12/25 10:30:54;;;;;;;8.60;7.80;;;2.80;99.90;;;3.00;76.54;100804.94;5111747;28;20036;-72
2021/12/25 10:33:32;;;;;;;9.23;8.30;;;3.00;99.90;;;3.07;75.93;100794.69;5112034;28;20047;-73
2021/12/25 10:36:06;;;;;;;8.40;7.60;;;3.20;99.90;;;3.49;75.33;100808.75;5111765;28;20051;-74
2021/12/25 10:38:37;;;;;;;8.60;7.80;;;3.50;99.90;;;3.78;74.45;100812.00;5111622;28;20093;-72
2021/12/25 10:41:19;;;;;;;8.60;7.87;;;3.80;99.90;;;4.28;73.87;100802.56;5111626;28;20046;-71
2021/12/25 10:43:52;;;;;;;8.20;7.50;;;4.30;99.90;;;4.75;72.11;100814.81;5111480;28;20446;-70
2021/12/25 10:46:21;;;;;;;7.57;6.77;;;4.70;99.90;;;4.98;70.23;100818.72;5112121;28;20059;-70
2021/12/25 10:48:50;;;;;;;10.47;7.67;;;5.00;99.90;;;4.79;70.06;100794.78;5111268;28;20503;-69
2021/12/25 10:51:31;;;;;;;7.90;7.20;;;4.90;99.90;;;4.88;69.00;100810.69;5111455;28;20035;-71
2021/12/25 10:54:03;;;;;;;8.17;7.40;;;5.00;99.90;;;4.32;68.38;100823.59;5111467;28;20062;-71
2021/12/25 10:56:37;;;;;;;8.33;7.60;;;4.70;99.90;;;4.55;68.99;100798.75;5111573;28;20043;-74
2021/12/25 10:59:12;;;;;;;7.83;7.03;;;4.60;99.90;;;2.91;69.80;100804.69;5111455;28;20027;-71
2021/12/25 11:01:45;;;;;;;7.63;6.90;;;3.50;99.90;;;1.98;73.21;100790.88;5111725;28;20032;-70
2021/12/25 11:04:29;;;;;;;7.60;6.70;;;2.50;99.90;;;1.74;74.86;100830.16;5111619;28;20047;-73
2021/12/25 11:06:59;;;;;;;9.27;8.37;;;1.90;99.90;;;1.78;75.95;100828.53;5093189;28;20044;-71
2021/12/25 11:09:29;;;;;;;9.85;8.45;;;1.90;99.90;;;1.84;75.71;100818.28;5111463;28;20100;-68
2021/12/25 11:12:19;;;;;;;8.27;7.57;;;1.90;99.90;;;2.42;75.94;100807.78;5111411;28;20143;-70
2021/12/25 11:14:52;;;;;;;9.03;8.23;;;2.20;99.90;;;2.78;73.04;100823.50;5111927;28;20044;-71
2021/12/25 11:17:25;;;;;;;9.03;8.33;;;2.70;99.90;;;2.47;72.54;100790.50;5112197;28;20043;-71
2021/12/25 11:20:01;;;;;;;8.40;7.57;;;2.70;99.90;;;2.91;72.58;100810.81;5113204;28;20075;-71
2021/12/25 11:22:48;;;;;;;7.33;6.70;;;3.00;99.90;;;2.13;71.08;100671.31;5111811;28;20050;-72
2021/12/25 11:25:21;;;;;;;7.53;6.93;;;3.00;99.90;;;2.18;72.80;100810.59;5095122;28;20067;-71
2021/12/25 11:27:50;;;;;;;8.10;6.50;;;2.40;99.90;;;2.05;72.03;100795.44;5112366;28;20058;-71
2021/12/25 11:30:23;;;;;;;6.95;6.45;;;2.20;99.90;;;1.70;72.30;100786.59;5111697;28;20050;-71
2021/12/25 11:32:54;;;;;;;8.73;6.90;;;1.90;99.90;;;1.63;72.84;100773.31;5111783;28;20047;-71
2021/12/25 11:35:24;;;;;;;6.53;6.03;;;1.80;99.90;;;1.42;72.57;100788.31;5111082;28;20350;-67
2021/12/25 11:37:56;;;;;;;7.33;6.73;;;1.70;99.90;;;1.32;73.56;100801.91;5111143;28;20441;-68
2021/12/25 11:40:30;;;;;;;8.17;7.57;;;1.50;99.90;;;1.50;73.74;100805.06;5092839;28;20062;-70
2021/12/25 11:43:04;;;;;;;8.77;8.07;;;1.60;99.90;;;1.67;73.23;100793.44;5111175;28;20039;-69
2021/12/25 11:45:40;;;;;;;8.13;7.40;;;1.70;99.90;;;1.91;72.11;100802.00;5093064;28;20447;-71